Aviation Digital Data Service (ADDS)

Output produced by METARs form (0859 UTC 19 November 2018)
found at http://www.aviationweather.gov/metar/data/
 
METAR text: KRNH 190855Z AUTO 00000KT 10SM SCT060 SCT075 OVC100 M05/M09 A2998 RMK AO2 T10501086
Conditions at: KRNH (NEW RICHMOND MUN, WI, US) observed 0855 UTC 19 November 2018
Temperature: -5.0°C (23°F)
Dewpoint: -8.6°C (17°F) [RH = 76%]
Pressure (altimeter): 29.98 inches Hg (1015.3 mb)
Winds: calm
Visibility: 10 or more miles (16+ km)
Ceiling: 10000 feet AGL
Clouds: scattered clouds at 6000 feet AGL
scattered clouds at 7500 feet AGL
overcast cloud deck at 10000 feet AGL
Weather: automated observation with no human augmentation;
there may or may not be significant weather present at this time

METAR text: KRNH 190835Z AUTO 00000KT 10SM OVC100 M05/M09 A2998 RMK AO2 T10481087
Conditions at: KRNH (NEW RICHMOND MUN, WI, US) observed 0835 UTC 19 November 2018
Temperature: -4.8°C (23°F)
Dewpoint: -8.7°C (16°F) [RH = 74%]
Pressure (altimeter): 29.98 inches Hg (1015.3 mb)
Winds: calm
Visibility: 10 or more miles (16+ km)
Ceiling: 10000 feet AGL
Clouds: overcast cloud deck at 10000 feet AGL
Weather: automated observation with no human augmentation;
there may or may not be significant weather present at this time

METAR text: KRNH 190815Z AUTO 00000KT 10SM -SN SCT024 BKN075 OVC100 M05/M09 A2998 RMK AO2 T10461090
Conditions at: KRNH (NEW RICHMOND MUN, WI, US) observed 0815 UTC 19 November 2018
Temperature: -4.6°C (24°F)
Dewpoint: -9.0°C (16°F) [RH = 71%]
Pressure (altimeter): 29.98 inches Hg (1015.3 mb)
Winds: calm
Visibility: 10 or more miles (16+ km)
Ceiling: 7500 feet AGL
Clouds: scattered clouds at 2400 feet AGL
broken clouds at 7500 feet AGL
overcast cloud deck at 10000 feet AGL
Weather: -SN  (light snow)

Forecast for: KRNH (NEW RICHMOND MUN, WI, US)
Text: KRNH 190852Z 1909/2006 VRB03KT 4SM -SHSN OVC030
Forecast period: 0900 to 1400 UTC 19 November 2018
Forecast type: FROM: standard forecast or significant change
Winds: variable direction winds at 3 MPH (3 knots; 1.5 m/s)
Visibility: 4 miles (6 km)
Ceiling: 3000 feet AGL
Clouds: overcast cloud deck at 3000 feet AGL
Weather: -SHSN  (light snow showers)
Text: TEMPO 1909/1912 1 1/2SM -SN BKN015
Forecast period: 0900 to 1200 UTC 19 November 2018
Forecast type: TEMPORARY: The following changes expected for less than half the time period
Visibility: 1.50 miles (2.41 km)
Ceiling: 1500 feet AGL
Clouds: broken clouds at 1500 feet AGL
Weather: -SN  (light snow)
Text: FM191400 36007KT P6SM BKN020
Forecast period: 1400 to 2100 UTC 19 November 2018
Forecast type: FROM: standard forecast or significant change
Winds: from the N (360 degrees) at 8 MPH (7 knots; 3.6 m/s)
Visibility: 6 or more miles 10+ km)
Ceiling: 2000 feet AGL
Clouds: broken clouds at 2000 feet AGL
Weather: no significant weather forecast for this period
Text: FM192100 35009KT P6SM BKN035
Forecast period: 2100 UTC 19 November 2018 to 0100 UTC 20 November 2018
Forecast type: FROM: standard forecast or significant change
Winds: from the N (350 degrees) at 10 MPH (9 knots; 4.6 m/s)
Visibility: 6 or more miles 10+ km)
Ceiling: 3500 feet AGL
Clouds: broken clouds at 3500 feet AGL
Weather: no significant weather forecast for this period
Text: FM200100 35005KT P6SM SCT040
Forecast period: 0100 to 0600 UTC 20 November 2018
Forecast type: FROM: standard forecast or significant change
Winds: from the N (350 degrees) at 6 MPH (5 knots; 2.6 m/s)
Visibility: 6 or more miles 10+ km)
Ceiling: at least 12,000 feet AGL
Clouds: scattered clouds at 4000 feet AGL
Weather: no significant weather forecast for this period